sensor_id;sensor_type;location;lat;lon;timestamp;pressure;altitude;pressure_sealevel;temperature;humidity
45071;BME280;30836;48.906;9.140;2022-09-21T00:00:05;994.21;;;16.00;46.33
45071;BME280;30836;48.906;9.140;2022-09-21T00:01:07;994.21;;;16.01;46.35
45071;BME280;30836;48.906;9.140;2022-09-21T00:02:13;994.21;;;16.01;46.35
45071;BME280;30836;48.906;9.140;2022-09-21T00:03:14;994.21;;;16.01;46.30
45071;BME280;30836;48.906;9.140;2022-09-21T00:04:15;994.19;;;16.00;46.29
45071;BME280;30836;48.906;9.140;2022-09-21T00:05:15;994.15;;;15.97;46.30
45071;BME280;30836;48.906;9.140;2022-09-21T00:06:17;994.17;;;15.94;46.26
45071;BME280;30836;48.906;9.140;2022-09-21T00:07:18;994.15;;;15.93;46.26
45071;BME280;30836;48.906;9.140;2022-09-21T00:08:19;994.15;;;15.92;46.33
45071;BME280;30836;48.906;9.140;2022-09-21T00:09:19;994.15;;;15.91;46.52
45071;BME280;30836;48.906;9.140;2022-09-21T00:10:20;994.15;;;15.90;46.59
45071;BME280;30836;48.906;9.140;2022-09-21T00:11:22;994.15;;;15.90;46.71
45071;BME280;30836;48.906;9.140;2022-09-21T00:12:25;994.17;;;15.97;46.52
45071;BME280;30836;48.906;9.140;2022-09-21T00:13:25;994.15;;;16.10;46.24
45071;BME280;30836;48.906;9.140;2022-09-21T00:14:27;994.15;;;16.24;45.96
45071;BME280;30836;48.906;9.140;2022-09-21T00:15:27;994.17;;;16.37;45.77
45071;BME280;30836;48.906;9.140;2022-09-21T00:16:28;994.17;;;16.48;45.63
45071;BME280;30836;48.906;9.140;2022-09-21T00:17:29;994.19;;;16.57;45.51
45071;BME280;30836;48.906;9.140;2022-09-21T00:18:30;994.21;;;16.65;45.29
45071;BME280;30836;48.906;9.140;2022-09-21T00:19:30;994.21;;;16.71;45.11
45071;BME280;30836;48.906;9.140;2022-09-21T00:20:31;994.23;;;16.76;44.90
45071;BME280;30836;48.906;9.140;2022-09-21T00:21:31;994.23;;;16.80;44.71
45071;BME280;30836;48.906;9.140;2022-09-21T00:22:32;994.23;;;16.84;44.55
45071;BME280;30836;48.906;9.140;2022-09-21T00:23:33;994.23;;;16.86;44.35
45071;BME280;30836;48.906;9.140;2022-09-21T00:24:35;994.21;;;16.89;44.24
45071;BME280;30836;48.906;9.140;2022-09-21T00:25:35;994.21;;;16.90;43.95
45071;BME280;30836;48.906;9.140;2022-09-21T00:26:35;994.21;;;16.90;44.01
45071;BME280;30836;48.906;9.140;2022-09-21T00:27:36;994.21;;;16.89;43.95
45071;BME280;30836;48.906;9.140;2022-09-21T00:28:36;994.21;;;16.89;43.87
45071;BME280;30836;48.906;9.140;2022-09-21T00:29:37;994.19;;;16.88;43.84
45071;BME280;30836;48.906;9.140;2022-09-21T00:30:38;994.21;;;16.88;43.82
45071;BME280;30836;48.906;9.140;2022-09-21T00:31:38;994.19;;;16.88;43.77
45071;BME280;30836;48.906;9.140;2022-09-21T00:32:39;994.21;;;16.89;43.63
45071;BME280;30836;48.906;9.140;2022-09-21T00:33:40;994.21;;;16.90;43.50
45071;BME280;30836;48.906;9.140;2022-09-21T00:34:41;994.23;;;16.89;43.42
45071;BME280;30836;48.906;9.140;2022-09-21T00:35:41;994.25;;;16.85;43.38
45071;BME280;30836;48.906;9.140;2022-09-21T00:36:42;994.25;;;16.74;43.55
45071;BME280;30836;48.906;9.140;2022-09-21T00:37:42;994.25;;;16.60;43.83
45071;BME280;30836;48.906;9.140;2022-09-21T00:38:43;994.25;;;16.46;44.05
45071;BME280;30836;48.906;9.140;2022-09-21T00:39:45;994.27;;;16.35;44.33
45071;BME280;30836;48.906;9.140;2022-09-21T00:40:45;994.27;;;16.25;44.55
45071;BME280;30836;48.906;9.140;2022-09-21T00:41:46;994.27;;;16.16;44.86
45071;BME280;30836;48.906;9.140;2022-09-21T00:42:46;994.27;;;16.08;45.02
45071;BME280;30836;48.906;9.140;2022-09-21T00:43:48;994.23;;;16.00;45.13
45071;BME280;30836;48.906;9.140;2022-09-21T00:44:54;994.27;;;15.93;45.26
45071;BME280;30836;48.906;9.140;2022-09-21T00:46:04;994.29;;;15.87;45.33
45071;BME280;30836;48.906;9.140;2022-09-21T00:47:06;994.29;;;15.81;45.51
45071;BME280;30836;48.906;9.140;2022-09-21T00:48:11;994.30;;;15.78;45.72
45071;BME280;30836;48.906;9.140;2022-09-21T00:49:11;994.29;;;15.76;45.73
45071;BME280;30836;48.906;9.140;2022-09-21T00:50:13;994.29;;;15.72;45.93
45071;BME280;30836;48.906;9.140;2022-09-21T00:51:16;994.27;;;15.68;46.10
45071;BME280;30836;48.906;9.140;2022-09-21T00:52:17;994.27;;;15.65;46.33
45071;BME280;30836;48.906;9.140;2022-09-21T00:53:19;994.29;;;15.60;46.57
45071;BME280;30836;48.906;9.140;2022-09-21T00:54:22;994.27;;;15.56;46.72
45071;BME280;30836;48.906;9.140;2022-09-21T00:56:32;994.23;;;15.52;46.85
45071;BME280;30836;48.906;9.140;2022-09-21T00:57:34;994.25;;;15.51;47.01
45071;BME280;30836;48.906;9.140;2022-09-21T00:58:37;994.25;;;15.48;47.19
45071;BME280;30836;48.906;9.140;2022-09-21T00:59:43;994.23;;;15.46;47.17
45071;BME280;30836;48.906;9.140;2022-09-21T01:00:44;994.25;;;15.45;47.22
45071;BME280;30836;48.906;9.140;2022-09-21T01:01:45;994.23;;;15.44;47.26
45071;BME280;30836;48.906;9.140;2022-09-21T01:02:45;994.25;;;15.43;47.28
45071;BME280;30836;48.906;9.140;2022-09-21T01:03:47;994.25;;;15.43;47.28
45071;BME280;30836;48.906;9.140;2022-09-21T01:04:51;994.25;;;15.44;47.28
45071;BME280;30836;48.906;9.140;2022-09-21T01:05:52;994.25;;;15.46;47.17
45071;BME280;30836;48.906;9.140;2022-09-21T01:06:53;994.23;;;15.47;47.20
45071;BME280;30836;48.906;9.140;2022-09-21T01:07:56;994.25;;;15.49;47.21
45071;BME280;30836;48.906;9.140;2022-09-21T01:09:01;994.27;;;15.57;46.92
45071;BME280;30836;48.906;9.140;2022-09-21T01:10:03;994.29;;;15.69;46.75
45071;BME280;30836;48.906;9.140;2022-09-21T01:14:35;994.30;;;16.11;46.45
45071;BME280;30836;48.906;9.140;2022-09-21T01:15:38;994.29;;;16.18;46.40
45071;BME280;30836;48.906;9.140;2022-09-21T01:16:52;994.29;;;16.24;46.21
45071;BME280;30836;48.906;9.140;2022-09-21T01:21:24;994.30;;;16.40;45.38
45071;BME280;30836;48.906;9.140;2022-09-21T01:22:36;994.30;;;16.41;45.15
45071;BME280;30836;48.906;9.140;2022-09-21T01:23:44;994.29;;;16.41;45.15
45071;BME280;30836;48.906;9.140;2022-09-21T01:25:00;994.30;;;16.42;45.05
45071;BME280;30836;48.906;9.140;2022-09-21T01:30:21;994.29;;;16.45;44.62
45071;BME280;30836;48.906;9.140;2022-09-21T01:31:23;994.29;;;16.44;44.56
45071;BME280;30836;48.906;9.140;2022-09-21T01:32:32;994.29;;;16.44;44.51
45071;BME280;30836;48.906;9.140;2022-09-21T01:33:38;994.29;;;16.44;44.48
45071;BME280;30836;48.906;9.140;2022-09-21T01:34:50;994.30;;;16.44;44.24
45071;BME280;30836;48.906;9.140;2022-09-21T01:37:00;994.32;;;16.42;44.30
45071;BME280;30836;48.906;9.140;2022-09-21T01:38:09;994.32;;;16.41;44.27
45071;BME280;30836;48.906;9.140;2022-09-21T01:39:14;994.34;;;16.39;44.28
45071;BME280;30836;48.906;9.140;2022-09-21T01:40:20;994.32;;;16.37;44.32
45071;BME280;30836;48.906;9.140;2022-09-21T01:41:29;994.32;;;16.36;44.35
45071;BME280;30836;48.906;9.140;2022-09-21T01:42:31;994.30;;;16.36;44.34
45071;BME280;30836;48.906;9.140;2022-09-21T01:43:34;994.30;;;16.36;44.25
45071;BME280;30836;48.906;9.140;2022-09-21T01:44:38;994.32;;;16.35;44.27
45071;BME280;30836;48.906;9.140;2022-09-21T01:45:42;994.32;;;16.35;44.31
45071;BME280;30836;48.906;9.140;2022-09-21T01:46:46;994.32;;;16.35;44.29
45071;BME280;30836;48.906;9.140;2022-09-21T01:47:48;994.32;;;16.35;44.23
45071;BME280;30836;48.906;9.140;2022-09-21T01:48:53;994.30;;;16.35;44.21
45071;BME280;30836;48.906;9.140;2022-09-21T01:49:59;994.34;;;16.34;44.17
45071;BME280;30836;48.906;9.140;2022-09-21T01:51:03;994.30;;;16.33;44.18
45071;BME280;30836;48.906;9.140;2022-09-21T01:51:16;994.34;;;16.31;44.20
45071;BME280;30836;48.906;9.140;2022-09-21T01:54:39;994.32;;;16.04;45.29
45071;BME280;30836;48.906;9.140;2022-09-21T01:55:53;994.30;;;15.89;45.62
45071;BME280;30836;48.906;9.140;2022-09-21T01:56:58;994.30;;;15.76;45.90
45071;BME280;30836;48.906;9.140;2022-09-21T01:58:06;994.30;;;15.67;46.12
45071;BME280;30836;48.906;9.140;2022-09-21T02:00:17;994.29;;;15.50;46.49
45071;BME280;30836;48.906;9.140;2022-09-21T02:01:19;994.27;;;15.44;46.65
45071;BME280;30836;48.906;9.140;2022-09-21T02:02:29;994.27;;;15.39;46.74
45071;BME280;30836;48.906;9.140;2022-09-21T02:03:36;994.29;;;15.36;46.83
45071;BME280;30836;48.906;9.140;2022-09-21T02:04:40;994.29;;;15.34;46.93
45071;BME280;30836;48.906;9.140;2022-09-21T02:05:41;994.27;;;15.33;46.96
45071;BME280;30836;48.906;9.140;2022-09-21T02:06:43;994.27;;;15.38;46.73
45071;BME280;30836;48.906;9.140;2022-09-21T02:07:45;994.27;;;15.48;46.40
45071;BME280;30836;48.906;9.140;2022-09-21T02:08:46;994.27;;;15.59;46.24
45071;BME280;30836;48.906;9.140;2022-09-21T02:09:47;994.30;;;15.68;46.01
45071;BME280;30836;48.906;9.140;2022-09-21T02:10:49;994.29;;;15.76;45.91
45071;BME280;30836;48.906;9.140;2022-09-21T02:11:50;994.27;;;15.84;45.81
45071;BME280;30836;48.906;9.140;2022-09-21T02:12:57;994.27;;;15.91;45.69
45071;BME280;30836;48.906;9.140;2022-09-21T02:14:00;994.29;;;15.98;45.62
45071;BME280;30836;48.906;9.140;2022-09-21T02:15:01;994.29;;;16.03;45.51
45071;BME280;30836;48.906;9.140;2022-09-21T02:19:00;994.29;;;16.07;45.59
45071;BME280;30836;48.906;9.140;2022-09-21T02:20:41;994.25;;;16.08;45.79
45071;BME280;30836;48.906;9.140;2022-09-21T02:25:09;994.25;;;16.11;45.72
45071;BME280;30836;48.906;9.140;2022-09-21T02:26:13;994.27;;;16.12;45.65
45071;BME280;30836;48.906;9.140;2022-09-21T02:28:32;994.27;;;16.14;45.59
45071;BME280;30836;48.906;9.140;2022-09-21T02:30:38;994.25;;;16.11;45.46
45071;BME280;30836;48.906;9.140;2022-09-21T02:36:14;994.23;;;15.80;46.55
45071;BME280;30836;48.906;9.140;2022-09-21T02:39:45;994.17;;;15.42;47.37
45071;BME280;30836;48.906;9.140;2022-09-21T02:41:35;994.19;;;15.34;47.47
45071;BME280;30836;48.906;9.140;2022-09-21T02:42:08;994.15;;;15.28;47.53
45071;BME280;30836;48.906;9.140;2022-09-21T02:43:36;994.17;;;15.22;47.65
45071;BME280;30836;48.906;9.140;2022-09-21T02:44:24;994.19;;;15.18;47.61
45071;BME280;30836;48.906;9.140;2022-09-21T02:45:30;994.19;;;15.15;47.72
45071;BME280;30836;48.906;9.140;2022-09-21T02:46:47;994.21;;;15.14;47.44
45071;BME280;30836;48.906;9.140;2022-09-21T02:48:52;994.21;;;15.33;46.83
45071;BME280;30836;48.906;9.140;2022-09-21T02:51:06;994.25;;;15.56;46.43
45071;BME280;30836;48.906;9.140;2022-09-21T02:52:11;994.27;;;15.65;46.34
45071;BME280;30836;48.906;9.140;2022-09-21T02:53:16;994.27;;;15.73;46.17
45071;BME280;30836;48.906;9.140;2022-09-21T02:54:21;994.27;;;15.77;45.92
45071;BME280;30836;48.906;9.140;2022-09-21T02:55:26;994.27;;;15.79;45.97
45071;BME280;30836;48.906;9.140;2022-09-21T02:56:29;994.25;;;15.79;46.07
45071;BME280;30836;48.906;9.140;2022-09-21T02:57:30;994.25;;;15.80;46.08
45071;BME280;30836;48.906;9.140;2022-09-21T02:58:33;994.27;;;15.81;45.96
45071;BME280;30836;48.906;9.140;2022-09-21T02:59:37;994.29;;;15.82;45.90
45071;BME280;30836;48.906;9.140;2022-09-21T03:00:38;994.27;;;15.83;45.80
45071;BME280;30836;48.906;9.140;2022-09-21T03:01:39;994.29;;;15.84;45.77
45071;BME280;30836;48.906;9.140;2022-09-21T03:02:41;994.25;;;15.86;45.56
45071;BME280;30836;48.906;9.140;2022-09-21T03:03:43;994.27;;;15.86;45.61
45071;BME280;30836;48.906;9.140;2022-09-21T03:04:45;994.29;;;15.86;45.63
45071;BME280;30836;48.906;9.140;2022-09-21T03:05:48;994.25;;;15.87;45.53
45071;BME280;30836;48.906;9.140;2022-09-21T03:06:50;994.25;;;15.88;45.36
45071;BME280;30836;48.906;9.140;2022-09-21T03:07:50;994.25;;;15.90;45.21
45071;BME280;30836;48.906;9.140;2022-09-21T03:08:50;994.23;;;15.91;45.03
45071;BME280;30836;48.906;9.140;2022-09-21T03:09:51;994.23;;;15.92;44.92
45071;BME280;30836;48.906;9.140;2022-09-21T03:10:52;994.23;;;15.93;44.85
45071;BME280;30836;48.906;9.140;2022-09-21T03:11:52;994.23;;;15.93;44.81
45071;BME280;30836;48.906;9.140;2022-09-21T03:12:55;994.23;;;15.94;44.81
45071;BME280;30836;48.906;9.140;2022-09-21T03:13:56;994.23;;;15.92;44.87
45071;BME280;30836;48.906;9.140;2022-09-21T03:14:56;994.25;;;15.84;45.24
45071;BME280;30836;48.906;9.140;2022-09-21T03:15:58;994.27;;;15.67;45.90
45071;BME280;30836;48.906;9.140;2022-09-21T03:17:01;994.23;;;15.47;46.30
45071;BME280;30836;48.906;9.140;2022-09-21T03:18:01;994.21;;;15.29;46.67
45071;BME280;30836;48.906;9.140;2022-09-21T03:19:03;994.21;;;15.15;46.99
45071;BME280;30836;48.906;9.140;2022-09-21T03:20:04;994.23;;;15.01;47.39
45071;BME280;30836;48.906;9.140;2022-09-21T03:21:05;994.23;;;14.87;47.62
45071;BME280;30836;48.906;9.140;2022-09-21T03:22:06;994.23;;;14.77;47.86
45071;BME280;30836;48.906;9.140;2022-09-21T03:23:06;994.29;;;14.67;48.07
45071;BME280;30836;48.906;9.140;2022-09-21T03:24:07;994.30;;;14.59;47.96
45071;BME280;30836;48.906;9.140;2022-09-21T03:25:07;994.29;;;14.50;48.33
45071;BME280;30836;48.906;9.140;2022-09-21T03:26:08;994.27;;;14.39;48.53
45071;BME280;30836;48.906;9.140;2022-09-21T03:27:08;994.29;;;14.31;48.61
45071;BME280;30836;48.906;9.140;2022-09-21T03:28:08;994.30;;;14.25;48.77
45071;BME280;30836;48.906;9.140;2022-09-21T03:29:09;994.29;;;14.20;48.88
45071;BME280;30836;48.906;9.140;2022-09-21T03:30:10;994.30;;;14.18;48.93
45071;BME280;30836;48.906;9.140;2022-09-21T03:31:10;994.32;;;14.16;49.03
45071;BME280;30836;48.906;9.140;2022-09-21T03:32:11;994.36;;;14.15;49.11
45071;BME280;30836;48.906;9.140;2022-09-21T03:33:12;994.40;;;14.12;49.17
45071;BME280;30836;48.906;9.140;2022-09-21T03:34:12;994.42;;;14.10;49.26
45071;BME280;30836;48.906;9.140;2022-09-21T03:35:13;994.40;;;14.07;49.33
45071;BME280;30836;48.906;9.140;2022-09-21T03:36:13;994.42;;;14.03;49.38
45071;BME280;30836;48.906;9.140;2022-09-21T03:37:13;994.42;;;14.01;49.41
45071;BME280;30836;48.906;9.140;2022-09-21T03:38:14;994.42;;;14.00;49.33
45071;BME280;30836;48.906;9.140;2022-09-21T03:39:14;994.44;;;13.98;49.36
45071;BME280;30836;48.906;9.140;2022-09-21T03:40:15;994.42;;;13.97;49.33
45071;BME280;30836;48.906;9.140;2022-09-21T03:41:16;994.44;;;13.96;49.42
45071;BME280;30836;48.906;9.140;2022-09-21T03:42:17;994.44;;;13.93;49.40
45071;BME280;30836;48.906;9.140;2022-09-21T03:43:17;994.44;;;13.93;49.41
45071;BME280;30836;48.906;9.140;2022-09-21T03:44:18;994.42;;;13.92;49.30
45071;BME280;30836;48.906;9.140;2022-09-21T03:45:18;994.42;;;13.90;49.26
45071;BME280;30836;48.906;9.140;2022-09-21T03:46:19;994.46;;;13.89;49.24
45071;BME280;30836;48.906;9.140;2022-09-21T03:47:19;994.46;;;13.89;49.22
45071;BME280;30836;48.906;9.140;2022-09-21T03:48:20;994.44;;;13.89;49.30
45071;BME280;30836;48.906;9.140;2022-09-21T03:49:20;994.44;;;13.89;49.36
45071;BME280;30836;48.906;9.140;2022-09-21T03:50:21;994.44;;;13.90;49.30
45071;BME280;30836;48.906;9.140;2022-09-21T03:51:21;994.44;;;13.91;49.28
45071;BME280;30836;48.906;9.140;2022-09-21T03:52:22;994.42;;;13.92;49.18
45071;BME280;30836;48.906;9.140;2022-09-21T03:53:22;994.42;;;13.93;49.20
45071;BME280;30836;48.906;9.140;2022-09-21T03:54:23;994.48;;;13.93;49.24
45071;BME280;30836;48.906;9.140;2022-09-21T03:55:24;994.48;;;13.94;49.29
45071;BME280;30836;48.906;9.140;2022-09-21T03:56:25;994.46;;;13.95;49.37
45071;BME280;30836;48.906;9.140;2022-09-21T03:57:25;994.48;;;13.95;49.35
45071;BME280;30836;48.906;9.140;2022-09-21T03:58:25;994.50;;;13.95;49.28
45071;BME280;30836;48.906;9.140;2022-09-21T03:59:26;994.48;;;13.96;49.21
45071;BME280;30836;48.906;9.140;2022-09-21T04:00:26;994.46;;;13.97;49.06
45071;BME280;30836;48.906;9.140;2022-09-21T04:01:28;994.44;;;13.97;48.79
45071;BME280;30836;48.906;9.140;2022-09-21T04:02:28;994.46;;;13.97;48.72
45071;BME280;30836;48.906;9.140;2022-09-21T04:03:29;994.46;;;13.97;48.72
45071;BME280;30836;48.906;9.140;2022-09-21T04:04:29;994.46;;;13.97;48.68
45071;BME280;30836;48.906;9.140;2022-09-21T04:05:30;994.44;;;13.98;48.71
45071;BME280;30836;48.906;9.140;2022-09-21T04:06:30;994.46;;;13.97;48.77
45071;BME280;30836;48.906;9.140;2022-09-21T04:07:31;994.46;;;13.96;48.78
45071;BME280;30836;48.906;9.140;2022-09-21T04:08:33;994.48;;;13.96;48.81
45071;BME280;30836;48.906;9.140;2022-09-21T04:09:33;994.46;;;13.96;48.73
45071;BME280;30836;48.906;9.140;2022-09-21T04:10:33;994.48;;;13.95;48.79
45071;BME280;30836;48.906;9.140;2022-09-21T04:11:34;994.50;;;13.95;48.87
45071;BME280;30836;48.906;9.140;2022-09-21T04:12:34;994.48;;;13.96;48.88
45071;BME280;30836;48.906;9.140;2022-09-21T04:13:35;994.48;;;13.96;48.82
45071;BME280;30836;48.906;9.140;2022-09-21T04:14:35;994.48;;;13.96;48.79
45071;BME280;30836;48.906;9.140;2022-09-21T04:15:36;994.46;;;13.95;48.60
45071;BME280;30836;48.906;9.140;2022-09-21T04:16:36;994.44;;;13.95;48.51
45071;BME280;30836;48.906;9.140;2022-09-21T04:17:37;994.46;;;13.94;48.28
45071;BME280;30836;48.906;9.140;2022-09-21T04:18:37;994.48;;;13.94;48.37
45071;BME280;30836;48.906;9.140;2022-09-21T04:19:37;994.48;;;13.94;48.39
45071;BME280;30836;48.906;9.140;2022-09-21T04:20:38;994.48;;;13.95;48.40
45071;BME280;30836;48.906;9.140;2022-09-21T04:21:38;994.50;;;13.95;48.46
45071;BME280;30836;48.906;9.140;2022-09-21T04:22:39;994.50;;;13.95;48.63
45071;BME280;30836;48.906;9.140;2022-09-21T04:23:39;994.52;;;13.96;48.73
45071;BME280;30836;48.906;9.140;2022-09-21T04:24:39;994.50;;;13.98;48.77
45071;BME280;30836;48.906;9.140;2022-09-21T04:25:40;994.52;;;14.02;48.67
45071;BME280;30836;48.906;9.140;2022-09-21T04:26:40;994.54;;;14.03;48.72
45071;BME280;30836;48.906;9.140;2022-09-21T04:27:41;994.52;;;14.03;48.80
45071;BME280;30836;48.906;9.140;2022-09-21T04:28:42;994.52;;;14.03;48.89
45071;BME280;30836;48.906;9.140;2022-09-21T04:29:42;994.54;;;14.02;49.07
45071;BME280;30836;48.906;9.140;2022-09-21T04:30:43;994.54;;;14.02;49.04
45071;BME280;30836;48.906;9.140;2022-09-21T04:31:44;994.58;;;14.02;49.27
45071;BME280;30836;48.906;9.140;2022-09-21T04:32:44;994.58;;;14.02;49.38
45071;BME280;30836;48.906;9.140;2022-09-21T04:33:48;994.56;;;14.03;49.37
45071;BME280;30836;48.906;9.140;2022-09-21T04:34:49;994.54;;;14.05;49.39
45071;BME280;30836;48.906;9.140;2022-09-21T04:35:53;994.56;;;14.07;49.40
45071;BME280;30836;48.906;9.140;2022-09-21T04:36:54;994.58;;;14.09;49.39
45071;BME280;30836;48.906;9.140;2022-09-21T04:37:55;994.56;;;14.10;49.38
45071;BME280;30836;48.906;9.140;2022-09-21T04:38:55;994.58;;;14.10;49.41
45071;BME280;30836;48.906;9.140;2022-09-21T04:39:55;994.58;;;14.11;49.44
45071;BME280;30836;48.906;9.140;2022-09-21T04:40:56;994.58;;;14.11;49.42
45071;BME280;30836;48.906;9.140;2022-09-21T04:41:57;994.60;;;14.11;49.37
45071;BME280;30836;48.906;9.140;2022-09-21T04:42:58;994.60;;;14.12;49.24
45071;BME280;30836;48.906;9.140;2022-09-21T04:43:58;994.60;;;14.14;49.15
45071;BME280;30836;48.906;9.140;2022-09-21T04:44:58;994.60;;;14.15;48.93
45071;BME280;30836;48.906;9.140;2022-09-21T04:47:06;994.60;;;14.17;48.76
45071;BME280;30836;48.906;9.140;2022-09-21T04:48:06;994.60;;;14.18;48.70
45071;BME280;30836;48.906;9.140;2022-09-21T04:49:06;994.60;;;14.18;48.62
45071;BME280;30836;48.906;9.140;2022-09-21T04:50:07;994.64;;;14.18;48.65
45071;BME280;30836;48.906;9.140;2022-09-21T04:51:08;994.64;;;14.17;48.64
45071;BME280;30836;48.906;9.140;2022-09-21T04:52:09;994.66;;;14.18;48.53
45071;BME280;30836;48.906;9.140;2022-09-21T04:53:10;994.70;;;14.20;48.36
45071;BME280;30836;48.906;9.140;2022-09-21T04:54:10;994.70;;;14.21;48.21
45071;BME280;30836;48.906;9.140;2022-09-21T04:55:11;994.72;;;14.21;48.11
45071;BME280;30836;48.906;9.140;2022-09-21T04:56:12;994.70;;;14.20;48.15
45071;BME280;30836;48.906;9.140;2022-09-21T04:57:14;994.70;;;14.20;48.17
45071;BME280;30836;48.906;9.140;2022-09-21T04:58:14;994.72;;;14.20;48.28
45071;BME280;30836;48.906;9.140;2022-09-21T04:59:14;994.76;;;14.20;48.23
45071;BME280;30836;48.906;9.140;2022-09-21T05:00:15;994.76;;;14.21;48.02
45071;BME280;30836;48.906;9.140;2022-09-21T05:01:15;994.76;;;14.22;47.91
45071;BME280;30836;48.906;9.140;2022-09-21T05:02:16;994.77;;;14.22;47.84
45071;BME280;30836;48.906;9.140;2022-09-21T05:03:20;994.77;;;14.23;47.81
45071;BME280;30836;48.906;9.140;2022-09-21T05:04:21;994.76;;;14.23;47.84
45071;BME280;30836;48.906;9.140;2022-09-21T05:05:21;994.79;;;14.22;47.90
45071;BME280;30836;48.906;9.140;2022-09-21T05:06:22;994.76;;;14.20;48.00
45071;BME280;30836;48.906;9.140;2022-09-21T05:07:22;994.77;;;14.18;48.23
45071;BME280;30836;48.906;9.140;2022-09-21T05:08:23;994.79;;;14.15;48.43
45071;BME280;30836;48.906;9.140;2022-09-21T05:09:25;994.81;;;14.13;48.46
45071;BME280;30836;48.906;9.140;2022-09-21T05:10:25;994.83;;;14.12;48.58
45071;BME280;30836;48.906;9.140;2022-09-21T05:11:26;994.85;;;14.12;48.60
45071;BME280;30836;48.906;9.140;2022-09-21T05:12:26;994.87;;;14.12;48.53
45071;BME280;30836;48.906;9.140;2022-09-21T05:13:27;994.87;;;14.12;48.49
45071;BME280;30836;48.906;9.140;2022-09-21T05:14:27;994.87;;;14.14;48.43
45071;BME280;30836;48.906;9.140;2022-09-21T05:15:27;994.87;;;14.15;48.47
45071;BME280;30836;48.906;9.140;2022-09-21T05:16:28;994.85;;;14.16;48.51
45071;BME280;30836;48.906;9.140;2022-09-21T05:17:28;994.87;;;14.16;48.51
45071;BME280;30836;48.906;9.140;2022-09-21T05:18:29;994.85;;;14.18;48.52
45071;BME280;30836;48.906;9.140;2022-09-21T05:19:29;994.87;;;14.19;48.50
45071;BME280;30836;48.906;9.140;2022-09-21T05:20:30;994.87;;;14.19;48.39
45071;BME280;30836;48.906;9.140;2022-09-21T05:21:30;994.87;;;14.19;48.24
45071;BME280;30836;48.906;9.140;2022-09-21T05:22:30;994.87;;;14.18;48.07
45071;BME280;30836;48.906;9.140;2022-09-21T05:23:31;994.85;;;14.17;48.04
45071;BME280;30836;48.906;9.140;2022-09-21T05:24:32;994.89;;;14.17;47.99
45071;BME280;30836;48.906;9.140;2022-09-21T05:25:33;994.91;;;14.16;47.90
45071;BME280;30836;48.906;9.140;2022-09-21T05:26:33;994.91;;;14.14;47.86
45071;BME280;30836;48.906;9.140;2022-09-21T05:27:34;994.91;;;14.12;47.98
45071;BME280;30836;48.906;9.140;2022-09-21T05:28:34;994.91;;;14.09;48.06
45071;BME280;30836;48.906;9.140;2022-09-21T05:29:35;995.00;;;14.08;48.15
45071;BME280;30836;48.906;9.140;2022-09-21T05:30:36;994.89;;;14.07;48.18
45071;BME280;30836;48.906;9.140;2022-09-21T05:31:38;994.89;;;14.06;48.17
45071;BME280;30836;48.906;9.140;2022-09-21T05:32:48;994.91;;;14.09;48.07
45071;BME280;30836;48.906;9.140;2022-09-21T05:34:02;994.91;;;14.13;48.01
45071;BME280;30836;48.906;9.140;2022-09-21T05:36:24;994.89;;;14.19;47.84
45071;BME280;30836;48.906;9.140;2022-09-21T05:38:26;994.89;;;14.20;47.91
45071;BME280;30836;48.906;9.140;2022-09-21T05:39:27;994.89;;;14.20;47.94
45071;BME280;30836;48.906;9.140;2022-09-21T05:40:28;995.00;;;14.21;47.97
45071;BME280;30836;48.906;9.140;2022-09-21T05:41:29;995.02;;;14.21;48.05
45071;BME280;30836;48.906;9.140;2022-09-21T05:42:29;994.91;;;14.20;48.14
45071;BME280;30836;48.906;9.140;2022-09-21T05:43:30;994.91;;;14.20;48.17
45071;BME280;30836;48.906;9.140;2022-09-21T05:44:31;994.91;;;14.20;48.20
45071;BME280;30836;48.906;9.140;2022-09-21T05:45:32;995.02;;;14.20;48.24
45071;BME280;30836;48.906;9.140;2022-09-21T05:46:34;995.02;;;14.22;48.20
45071;BME280;30836;48.906;9.140;2022-09-21T05:47:39;995.04;;;14.26;48.08
45071;BME280;30836;48.906;9.140;2022-09-21T05:50:05;995.06;;;14.53;47.22
45071;BME280;30836;48.906;9.140;2022-09-21T05:53:47;995.11;;;14.97;46.40
45071;BME280;30836;48.906;9.140;2022-09-21T05:55:54;995.13;;;15.16;46.10
45071;BME280;30836;48.906;9.140;2022-09-21T06:00:21;995.15;;;15.42;45.75
45071;BME280;30836;48.906;9.140;2022-09-21T06:03:35;995.15;;;15.55;45.60
45071;BME280;30836;48.906;9.140;2022-09-21T06:04:37;995.17;;;15.58;45.56
45071;BME280;30836;48.906;9.140;2022-09-21T06:05:43;995.17;;;15.61;45.56
45071;BME280;30836;48.906;9.140;2022-09-21T06:06:43;995.19;;;15.63;45.60
45071;BME280;30836;48.906;9.140;2022-09-21T06:07:44;995.17;;;15.65;45.63
45071;BME280;30836;48.906;9.140;2022-09-21T06:08:44;995.19;;;15.67;45.65
45071;BME280;30836;48.906;9.140;2022-09-21T06:09:45;995.21;;;15.68;45.70
45071;BME280;30836;48.906;9.140;2022-09-21T06:10:45;995.21;;;15.69;45.72
45071;BME280;30836;48.906;9.140;2022-09-21T06:11:46;995.21;;;15.70;45.75
45071;BME280;30836;48.906;9.140;2022-09-21T06:12:47;995.21;;;15.70;45.79
45071;BME280;30836;48.906;9.140;2022-09-21T06:13:47;995.21;;;15.71;45.81
45071;BME280;30836;48.906;9.140;2022-09-21T06:14:47;995.17;;;15.73;45.75
45071;BME280;30836;48.906;9.140;2022-09-21T06:15:48;995.17;;;15.76;45.72
45071;BME280;30836;48.906;9.140;2022-09-21T06:16:49;995.17;;;15.79;45.69
45071;BME280;30836;48.906;9.140;2022-09-21T06:17:49;995.21;;;15.81;45.69
45071;BME280;30836;48.906;9.140;2022-09-21T06:18:50;995.19;;;15.84;45.65
45071;BME280;30836;48.906;9.140;2022-09-21T06:19:50;995.21;;;15.87;45.63
45071;BME280;30836;48.906;9.140;2022-09-21T06:20:51;995.19;;;15.90;45.62
45071;BME280;30836;48.906;9.140;2022-09-21T06:21:51;995.25;;;15.94;45.61
45071;BME280;30836;48.906;9.140;2022-09-21T06:22:51;995.23;;;15.97;45.48
45071;BME280;30836;48.906;9.140;2022-09-21T06:23:52;995.23;;;16.00;45.47
45071;BME280;30836;48.906;9.140;2022-09-21T06:24:52;995.25;;;16.04;45.48
45071;BME280;30836;48.906;9.140;2022-09-21T06:25:53;995.29;;;16.08;45.47